Time;durP1;ratioP1;P1;durP2;ratioP2;P2;SDS_P1;SDS_P2;PMS_P1;PMS_P2;Temp;Humidity;BMP_temperature;BMP_pressure;BME280_temperature;BME280_humidity;BME280_pressure;Samples;Min_cycle;Max_cycle;Signal;HPM_P1;HPM_P2
2023/03/21 00:01:57;;;;;;;4.68;3.15;;;15.60;71.40;;;;;;10442127;28;20112;-56
2023/03/21 00:06:58;;;;;;;4.78;2.90;;;15.60;71.40;;;;;;10433979;28;20465;-55
2023/03/21 00:12:00;;;;;;;4.57;2.80;;;15.50;71.30;;;;;;10447078;28;20451;-54
2023/03/21 00:17:01;;;;;;;5.32;2.72;;;15.60;71.40;;;;;;10445277;28;20017;-54
2023/03/21 00:22:01;;;;;;;4.70;2.90;;;15.50;71.40;;;;;;10446803;28;20025;-55
2023/03/21 00:27:02;;;;;;;4.25;2.95;;;15.50;71.40;;;;;;10428374;28;20102;-55
2023/03/21 00:32:03;;;;;;;3.95;2.42;;;15.50;71.40;;;;;;10443924;28;20013;-55
2023/03/21 00:37:06;;;;;;;3.28;2.35;;;15.50;71.40;;;;;;10444776;28;20073;-54
2023/03/21 00:42:08;;;;;;;4.15;2.65;;;15.50;71.40;;;;;;10446346;28;20025;-54
2023/03/21 00:47:11;;;;;;;4.85;2.42;;;15.50;71.40;;;;;;10436765;28;20063;-53
2023/03/21 00:52:12;;;;;;;5.28;3.33;;;15.50;71.40;;;;;;10444862;28;20104;-53
2023/03/21 00:57:13;;;;;;;3.60;3.25;;;15.50;71.30;;;;;;10445804;28;20023;-55
2023/03/21 01:02:21;;;;;;;5.32;3.03;;;15.50;71.30;;;;;;10446178;28;20437;-55
2023/03/21 01:07:22;;;;;;;3.72;2.33;;;15.50;71.30;;;;;;10437129;28;20543;-54
2023/03/21 01:12:22;;;;;;;3.83;2.50;;;15.50;71.30;;;;;;10435491;28;20141;-55
2023/03/21 01:17:23;;;;;;;4.32;2.70;;;15.40;71.20;;;;;;10442697;28;20626;-53
2023/03/21 01:22:23;;;;;;;3.58;2.70;;;15.40;71.20;;;;;;10451415;28;20124;-55
2023/03/21 01:27:24;;;;;;;3.65;2.30;;;15.40;71.20;;;;;;10453476;28;20032;-55
2023/03/21 01:32:25;;;;;;;4.05;2.60;;;15.40;71.30;;;;;;10459970;28;20074;-56
2023/03/21 01:37:26;;;;;;;3.65;2.35;;;15.40;71.20;;;;;;10434156;28;20365;-55
2023/03/21 01:42:26;;;;;;;3.95;2.50;;;15.40;71.30;;;;;;10452398;28;20435;-55
2023/03/21 01:47:27;;;;;;;5.32;2.95;;;15.40;71.20;;;;;;10452560;28;20736;-56
2023/03/21 01:52:36;;;;;;;4.57;2.58;;;15.40;71.20;;;;;;10449893;28;20540;-56
2023/03/21 01:57:44;;;;;;;3.20;2.40;;;15.40;71.30;;;;;;10452118;28;20111;-56
2023/03/21 02:02:50;;;;;;;4.82;2.80;;;15.40;71.20;;;;;;10466420;28;20028;-54
2023/03/21 02:07:51;;;;;;;3.45;2.60;;;15.40;71.30;;;;;;10456296;28;20032;-56
2023/03/21 02:12:53;;;;;;;3.20;2.42;;;15.40;71.30;;;;;;10450237;28;20372;-56
2023/03/21 02:18:15;;;;;;;4.78;2.92;;;15.30;71.20;;;;;;10449537;28;20397;-55
2023/03/21 02:23:50;;;;;;;6.20;2.63;;;15.40;71.20;;;;;;10449844;28;20036;-54
2023/03/21 02:29:02;;;;;;;4.20;2.85;;;15.40;71.20;;;;;;10440249;28;20028;-54
2023/03/21 02:34:38;;;;;;;3.38;2.53;;;15.30;71.20;;;;;;10448999;28;20033;-55
2023/03/21 02:40:08;;;;;;;3.40;2.22;;;15.30;71.20;;;;;;10450462;28;20072;-55
2023/03/21 02:45:19;;;;;;;3.75;3.03;;;15.30;71.20;;;;;;10449398;28;20688;-55
2023/03/21 02:50:29;;;;;;;4.45;2.72;;;15.30;71.10;;;;;;10444800;28;20040;-54
2023/03/21 02:55:33;;;;;;;3.78;2.55;;;15.30;71.00;;;;;;10426589;28;20048;-55
2023/03/21 03:00:35;;;;;;;3.80;2.15;;;15.30;71.10;;;;;;10447640;28;20056;-56
2023/03/21 03:05:47;;;;;;;4.43;2.60;;;15.30;71.10;;;;;;10447909;28;20119;-54
2023/03/21 03:11:23;;;;;;;2.65;1.88;;;15.30;71.00;;;;;;10443463;28;20052;-54
2023/03/21 03:16:46;;;;;;;6.05;2.70;;;15.30;71.00;;;;;;10447717;28;20021;-56
2023/03/21 03:22:05;;;;;;;4.43;2.20;;;15.30;71.10;;;;;;10447869;28;20021;-55
2023/03/21 03:27:28;;;;;;;3.97;2.33;;;15.30;71.00;;;;;;10444122;28;20033;-56
2023/03/21 03:32:47;;;;;;;3.83;2.50;;;15.30;71.10;;;;;;10444095;28;20025;-54
2023/03/21 03:37:54;;;;;;;3.05;2.53;;;15.30;71.10;;;;;;10442739;28;20400;-54
2023/03/21 03:43:06;;;;;;;3.83;2.80;;;15.20;71.00;;;;;;10447159;28;20040;-57
2023/03/21 03:48:33;;;;;;;3.25;2.50;;;15.20;71.60;;;;;;10447857;28;20029;-56
2023/03/21 03:53:41;;;;;;;5.47;2.88;;;15.20;70.90;;;;;;10424875;28;20021;-55
2023/03/21 03:58:42;;;;;;;4.47;2.40;;;15.40;70.70;;;;;;10446273;28;20468;-55
2023/03/21 04:03:48;;;;;;;4.28;2.38;;;15.50;70.20;;;;;;10445542;28;20091;-54
2023/03/21 04:08:49;;;;;;;3.88;2.10;;;15.70;69.70;;;;;;10444893;28;20065;-55
2023/03/21 04:13:50;;;;;;;4.68;2.55;;;15.90;68.90;;;;;;10445726;28;20527;-55
2023/03/21 04:18:51;;;;;;;3.05;1.98;;;16.00;68.40;;;;;;10446890;28;20021;-55
2023/03/21 04:23:53;;;;;;;2.17;1.83;;;16.10;68.10;;;;;;10434735;28;20061;-56
2023/03/21 04:28:54;;;;;;;3.75;2.00;;;16.20;67.90;;;;;;10445306;28;20028;-55
2023/03/21 04:33:55;;;;;;;3.28;2.00;;;16.20;67.80;;;;;;10433840;28;20112;-55
2023/03/21 04:39:03;;;;;;;3.55;2.40;;;16.30;67.70;;;;;;10460581;28;20037;-55
2023/03/21 04:44:04;;;;;;;3.60;2.20;;;16.30;67.70;;;;;;10445306;28;20491;-56
2023/03/21 04:49:08;;;;;;;4.90;2.67;;;16.40;67.80;;;;;;10417399;28;20029;-56
2023/03/21 04:54:09;;;;;;;3.22;2.17;;;16.40;67.80;;;;;;10444649;28;20013;-56
2023/03/21 04:59:15;;;;;;;3.58;1.90;;;16.40;68.10;;;;;;10445142;28;20500;-55
2023/03/21 05:04:18;;;;;;;2.30;1.75;;;16.40;68.60;;;;;;10442330;28;20037;-54
2023/03/21 05:09:19;;;;;;;2.88;1.73;;;16.30;68.70;;;;;;10444002;28;20088;-55
2023/03/21 05:14:23;;;;;;;3.72;2.55;;;16.20;69.00;;;;;;10444339;28;20005;-54
2023/03/21 05:19:34;;;;;;;3.70;2.40;;;16.10;69.00;;;;;;10441171;28;20057;-56
2023/03/21 05:24:38;;;;;;;4.55;1.80;;;16.00;69.20;;;;;;10443730;28;20033;-55
2023/03/21 05:29:38;;;;;;;3.50;2.00;;;16.00;69.30;;;;;;10445544;28;20074;-55
2023/03/21 05:34:39;;;;;;;3.13;1.80;;;15.90;69.40;;;;;;10415808;28;20022;-56
2023/03/21 05:39:40;;;;;;;3.05;1.95;;;15.90;69.50;;;;;;10434783;28;20137;-55
2023/03/21 05:44:41;;;;;;;2.65;1.58;;;15.90;69.30;;;;;;10430910;28;20426;-55
2023/03/21 05:49:42;;;;;;;4.18;2.28;;;16.00;69.10;;;;;;10446917;28;20041;-56
2023/03/21 05:54:43;;;;;;;4.35;2.05;;;15.90;69.10;;;;;;10448648;28;20422;-56
2023/03/21 05:59:44;;;;;;;3.10;1.70;;;15.90;69.20;;;;;;10451191;28;20074;-55
2023/03/21 06:04:45;;;;;;;3.95;1.60;;;15.90;69.20;;;;;;10444823;28;20032;-55
2023/03/21 06:09:45;;;;;;;4.07;1.88;;;15.90;69.00;;;;;;10451696;28;20448;-55
2023/03/21 06:14:46;;;;;;;2.63;1.60;;;16.00;68.70;;;;;;10451044;28;20663;-54
2023/03/21 06:19:46;;;;;;;5.22;1.95;;;16.00;68.90;;;;;;10449563;28;20059;-55
2023/03/21 06:24:48;;;;;;;8.20;2.33;;;16.20;69.00;;;;;;10449594;28;20021;-55
2023/03/21 06:29:49;;;;;;;5.25;1.80;;;16.20;69.70;;;;;;10445821;28;20025;-53
2023/03/21 06:34:50;;;;;;;7.43;2.15;;;16.20;70.10;;;;;;10450022;28;20024;-55
2023/03/21 06:39:51;;;;;;;4.38;1.85;;;16.20;70.40;;;;;;10442262;28;20029;-53
2023/03/21 06:44:52;;;;;;;5.25;1.95;;;16.20;70.70;;;;;;10437564;28;20035;-52
2023/03/21 06:49:52;;;;;;;10.00;2.22;;;16.20;70.50;;;;;;10434556;28;20049;-55
2023/03/21 06:54:53;;;;;;;4.72;2.08;;;16.10;70.60;;;;;;10440421;28;20101;-53
2023/03/21 06:59:54;;;;;;;8.00;1.67;;;16.10;70.60;;;;;;10437785;28;20523;-55
2023/03/21 07:04:55;;;;;;;7.40;2.38;;;16.10;70.50;;;;;;10450566;28;20044;-53
2023/03/21 07:09:55;;;;;;;7.53;2.67;;;16.00;71.20;;;;;;10447583;28;20072;-54
2023/03/21 07:14:56;;;;;;;7.38;1.60;;;15.90;70.90;;;;;;10417953;28;20029;-53
2023/03/21 07:19:57;;;;;;;6.45;2.63;;;15.90;70.80;;;;;;10429142;28;20111;-52
2023/03/21 07:24:57;;;;;;;6.75;2.80;;;15.90;70.70;;;;;;10445611;28;20424;-54
2023/03/21 07:29:58;;;;;;;7.43;2.42;;;15.90;70.70;;;;;;10445121;28;20048;-53
2023/03/21 07:34:59;;;;;;;11.70;4.15;;;15.80;70.60;;;;;;10438389;28;20064;-53
2023/03/21 07:40:00;;;;;;;13.82;2.45;;;15.70;71.60;;;;;;10428998;28;20038;-52
2023/03/21 07:45:03;;;;;;;11.23;2.38;;;15.70;72.20;;;;;;10446678;28;20488;-54
2023/03/21 07:50:05;;;;;;;6.07;2.85;;;15.70;72.10;;;;;;10442325;28;20021;-54
2023/03/21 07:55:06;;;;;;;7.85;2.25;;;15.70;72.00;;;;;;10426155;28;20031;-53
2023/03/21 08:00:07;;;;;;;7.20;2.15;;;15.70;71.80;;;;;;10420079;28;20037;-56
2023/03/21 08:05:10;;;;;;;4.85;2.65;;;15.70;71.40;;;;;;10432997;28;20065;-54
2023/03/21 08:10:11;;;;;;;7.22;2.33;;;15.70;71.60;;;;;;10445486;28;20132;-53
2023/03/21 08:15:13;;;;;;;5.30;2.42;;;15.70;71.60;;;;;;10442611;28;20040;-53
2023/03/21 08:20:19;;;;;;;6.22;2.35;;;15.70;71.60;;;;;;10452157;28;20005;-53
2023/03/21 08:25:21;;;;;;;7.63;3.25;;;15.80;71.70;;;;;;10426028;28;20064;-52
2023/03/21 08:30:24;;;;;;;6.57;2.13;;;15.80;71.70;;;;;;10408171;28;20033;-53
2023/03/21 08:35:25;;;;;;;8.88;2.35;;;15.80;71.70;;;;;;10415006;28;20055;-53
2023/03/21 08:40:26;;;;;;;6.35;2.40;;;15.80;71.50;;;;;;10426745;28;20025;-54
2023/03/21 08:45:27;;;;;;;5.25;2.70;;;15.80;71.50;;;;;;10423395;28;20117;-52
2023/03/21 08:50:30;;;;;;;7.20;2.17;;;15.70;71.50;;;;;;10422436;28;20795;-52
2023/03/21 08:55:32;;;;;;;4.22;1.65;;;15.70;71.50;;;;;;10435797;28;20480;-53
2023/03/21 09:00:32;;;;;;;5.50;2.22;;;15.70;72.10;;;;;;10440100;28;20078;-53
2023/03/21 09:05:35;;;;;;;4.38;2.33;;;15.70;72.60;;;;;;10442114;28;20549;-53
2023/03/21 09:10:35;;;;;;;11.82;2.92;;;15.60;72.70;;;;;;10437905;28;20037;-53
2023/03/21 09:15:36;;;;;;;12.05;3.38;;;15.70;72.40;;;;;;10443190;28;20381;-54
2023/03/21 09:20:38;;;;;;;5.55;2.15;;;15.60;72.20;;;;;;10429512;28;20156;-52
2023/03/21 09:25:44;;;;;;;6.72;1.98;;;15.60;71.80;;;;;;10447968;28;20041;-54
2023/03/21 09:30:46;;;;;;;7.78;1.92;;;15.60;72.40;;;;;;10449544;28;20045;-54
2023/03/21 09:35:47;;;;;;;5.88;2.15;;;15.60;72.60;;;;;;10447471;28;20447;-53
2023/03/21 09:41:15;;;;;;;7.75;1.90;;;15.60;72.50;;;;;;10440757;28;20064;-53
2023/03/21 09:46:44;;;;;;;8.27;2.45;;;15.60;72.40;;;;;;10439510;28;20029;-53
2023/03/21 09:51:51;;;;;;;10.82;3.03;;;15.60;72.40;;;;;;10427411;28;20013;-53
2023/03/21 09:56:57;;;;;;;4.30;2.05;;;15.60;72.70;;;;;;10440881;28;20021;-54
2023/03/21 10:01:59;;;;;;;3.55;2.20;;;15.70;73.00;;;;;;10437592;28;20025;-55
2023/03/21 10:07:01;;;;;;;6.03;2.80;;;15.80;73.20;;;;;;10442527;28;20033;-55
2023/03/21 10:12:29;;;;;;;6.68;2.55;;;15.80;73.40;;;;;;10407423;28;20045;-54
2023/03/21 10:17:42;;;;;;;5.68;2.15;;;15.80;73.60;;;;;;10428548;28;20365;-55
2023/03/21 10:22:45;;;;;;;12.00;3.35;;;15.80;73.70;;;;;;10415618;28;20014;-54
2023/03/21 10:27:48;;;;;;;4.30;2.40;;;15.80;73.80;;;;;;10440625;28;20029;-55
2023/03/21 10:32:49;;;;;;;7.85;2.05;;;15.80;73.40;;;;;;10422196;28;20013;-55
2023/03/21 10:37:50;;;;;;;5.03;1.83;;;15.80;73.10;;;;;;10419400;28;20029;-55
2023/03/21 10:42:56;;;;;;;4.10;1.88;;;15.70;73.00;;;;;;10436347;28;20068;-55
2023/03/21 10:47:56;;;;;;;6.45;2.13;;;15.70;73.00;;;;;;10410096;28;20032;-55
2023/03/21 10:52:59;;;;;;;6.38;2.00;;;15.70;72.90;;;;;;10436979;28;20443;-53
2023/03/21 10:58:26;;;;;;;4.80;1.92;;;15.70;72.90;;;;;;10435771;28;20062;-55
2023/03/21 11:03:35;;;;;;;4.93;2.05;;;15.70;72.90;;;;;;10440302;28;20463;-54
2023/03/21 11:08:46;;;;;;;3.60;2.10;;;15.70;72.90;;;;;;10433844;28;20325;-53
2023/03/21 11:13:57;;;;;;;5.30;1.73;;;15.70;72.70;;;;;;10444336;28;20388;-54
2023/03/21 11:19:13;;;;;;;4.22;1.88;;;15.80;72.80;;;;;;10440448;28;20028;-54
2023/03/21 11:24:17;;;;;;;9.00;2.22;;;15.70;72.50;;;;;;10437639;28;20516;-52
2023/03/21 11:29:39;;;;;;;5.97;2.00;;;15.80;72.40;;;;;;10440770;28;20033;-55
2023/03/21 11:35:12;;;;;;;3.88;1.58;;;15.90;72.50;;;;;;10445191;28;20472;-55
2023/03/21 11:40:55;;;;;;;8.68;2.28;;;15.80;72.40;;;;;;10442260;28;20028;-55
2023/03/21 11:46:13;;;;;;;3.03;1.75;;;15.80;72.20;;;;;;10442277;28;20295;-56
2023/03/21 11:51:38;;;;;;;4.80;1.95;;;15.70;72.50;;;;;;10440742;28;20014;-55
2023/03/21 11:56:49;;;;;;;2.70;1.70;;;15.80;72.40;;;;;;10436256;28;20021;-54
2023/03/21 12:02:36;;;;;;;4.40;1.55;;;15.70;72.10;;;;;;10414373;28;20045;-55
2023/03/21 12:08:11;;;;;;;3.50;1.42;;;15.70;72.50;;;;;;10438699;28;20816;-54
2023/03/21 12:13:34;;;;;;;4.22;2.38;;;15.70;72.50;;;;;;10432380;28;20128;-55
2023/03/21 12:19:22;;;;;;;4.90;1.65;;;15.70;72.50;;;;;;10438203;28;20032;-54
2023/03/21 12:24:37;;;;;;;3.35;1.85;;;15.70;72.20;;;;;;10439891;28;20043;-54
2023/03/21 12:30:10;;;;;;;4.22;1.70;;;15.70;72.40;;;;;;10442730;28;20095;-55
2023/03/21 12:35:48;;;;;;;4.45;1.50;;;15.70;72.70;;;;;;10444286;28;20025;-55
2023/03/21 12:41:04;;;;;;;3.72;1.92;;;15.70;72.70;;;;;;10436224;28;20528;-55
2023/03/21 12:46:26;;;;;;;8.68;2.63;;;15.70;72.70;;;;;;10436331;28;20115;-55
2023/03/21 12:51:36;;;;;;;7.60;1.95;;;15.70;72.70;;;;;;10421183;28;20033;-55
2023/03/21 12:57:11;;;;;;;5.38;1.98;;;15.70;72.60;;;;;;10442449;28;20430;-54
2023/03/21 13:02:38;;;;;;;4.68;1.70;;;15.70;72.60;;;;;;10451072;28;20029;-53
2023/03/21 13:07:42;;;;;;;4.35;2.05;;;15.70;72.60;;;;;;10434226;28;20029;-55
2023/03/21 13:13:15;;;;;;;4.57;2.10;;;15.70;72.70;;;;;;10452119;28;20045;-55
2023/03/21 13:18:38;;;;;;;8.80;1.80;;;15.80;72.70;;;;;;10451861;28;20031;-53
2023/03/21 13:23:39;;;;;;;8.07;2.15;;;15.80;72.40;;;;;;10450875;28;20025;-53
2023/03/21 13:28:41;;;;;;;7.38;2.55;;;15.80;72.20;;;;;;10450624;28;20029;-53
2023/03/21 13:33:47;;;;;;;7.63;2.63;;;15.80;72.70;;;;;;10445530;28;20128;-54
2023/03/21 13:38:50;;;;;;;11.57;3.13;;;15.90;73.30;;;;;;10457164;28;20487;-54
2023/03/21 13:43:52;;;;;;;6.75;2.00;;;16.00;72.60;;;;;;10451021;28;20021;-54
2023/03/21 13:49:08;;;;;;;6.43;2.05;;;16.00;72.80;;;;;;10447573;28;20033;-55
2023/03/21 13:54:16;;;;;;;10.07;2.55;;;16.00;72.80;;;;;;10447641;28;20025;-53
2023/03/21 13:59:39;;;;;;;4.07;2.28;;;16.10;72.80;;;;;;10448861;28;20025;-54
2023/03/21 14:04:42;;;;;;;9.07;2.13;;;16.10;72.60;;;;;;10428062;28;20033;-53
2023/03/21 14:09:48;;;;;;;8.00;2.03;;;16.10;72.80;;;;;;10433228;28;20041;-53
2023/03/21 14:15:05;;;;;;;5.53;1.92;;;16.00;72.90;;;;;;10457927;28;20036;-54
2023/03/21 14:20:26;;;;;;;6.45;1.85;;;16.00;73.00;;;;;;10448990;28;20742;-55
2023/03/21 14:25:35;;;;;;;7.10;1.95;;;16.00;73.20;;;;;;10447535;28;20175;-52
2023/03/21 14:30:39;;;;;;;5.20;2.45;;;16.00;73.30;;;;;;10447615;28;20441;-55
2023/03/21 14:35:41;;;;;;;9.85;2.88;;;16.00;73.40;;;;;;10434971;28;20025;-54
2023/03/21 14:40:50;;;;;;;3.97;1.67;;;15.90;73.40;;;;;;10448642;28;20043;-53
2023/03/21 14:45:54;;;;;;;4.65;2.35;;;15.90;73.40;;;;;;10447310;28;20025;-53
2023/03/21 14:51:00;;;;;;;5.13;1.80;;;16.00;73.50;;;;;;10445835;28;20013;-53
2023/03/21 14:56:20;;;;;;;6.57;1.92;;;16.00;73.40;;;;;;10446951;28;20409;-53
2023/03/21 15:01:29;;;;;;;9.50;2.15;;;16.00;73.00;;;;;;10423293;28;20021;-53
2023/03/21 15:06:31;;;;;;;6.65;1.73;;;16.10;72.40;;;;;;10443235;28;20373;-56
2023/03/21 15:11:37;;;;;;;8.52;2.45;;;16.20;72.60;;;;;;10446751;28;20671;-55
2023/03/21 15:16:38;;;;;;;8.82;1.55;;;16.30;73.10;;;;;;10443588;28;20013;-55
2023/03/21 15:21:44;;;;;;;4.55;1.73;;;16.40;74.10;;;;;;10444959;28;20055;-55
2023/03/21 15:26:47;;;;;;;4.03;1.48;;;16.50;74.80;;;;;;10445135;28;20071;-55
2023/03/21 15:31:48;;;;;;;7.57;2.22;;;16.50;74.50;;;;;;10428840;28;20028;-54
2023/03/21 15:37:00;;;;;;;3.70;1.83;;;16.50;74.20;;;;;;10432894;28;20035;-55
2023/03/21 15:42:29;;;;;;;9.82;3.33;;;16.50;74.00;;;;;;10444829;28;20113;-56
2023/03/21 15:47:42;;;;;;;4.43;1.98;;;16.50;73.80;;;;;;10441431;28;20025;-55
2023/03/21 15:52:43;;;;;;;6.47;2.08;;;16.50;74.20;;;;;;10440394;28;20027;-53
2023/03/21 15:57:50;;;;;;;6.28;1.70;;;16.50;74.00;;;;;;10456617;28;20025;-56
2023/03/21 16:02:58;;;;;;;8.23;2.47;;;16.50;74.40;;;;;;10438130;28;20414;-54
2023/03/21 16:08:20;;;;;;;3.95;1.50;;;16.50;73.90;;;;;;10423581;28;20041;-54
2023/03/21 16:13:20;;;;;;;7.72;1.95;;;16.50;73.70;;;;;;10432686;28;20060;-55
2023/03/21 16:18:21;;;;;;;6.22;1.90;;;16.50;73.60;;;;;;10436982;28;20131;-56
2023/03/21 16:23:21;;;;;;;4.03;1.63;;;16.50;73.70;;;;;;10443481;28;20049;-55
2023/03/21 16:28:22;;;;;;;7.80;2.67;;;16.40;73.80;;;;;;10442499;28;20428;-54
2023/03/21 16:33:24;;;;;;;6.32;2.33;;;16.30;74.30;;;;;;10405266;28;20029;-55
2023/03/21 16:38:25;;;;;;;14.02;4.18;;;16.30;73.90;;;;;;10430559;28;20025;-56
2023/03/21 16:43:25;;;;;;;6.40;2.30;;;16.30;73.50;;;;;;10435294;28;20064;-53
2023/03/21 16:48:26;;;;;;;2.92;1.90;;;16.30;73.30;;;;;;10431673;28;20112;-56
2023/03/21 16:53:27;;;;;;;5.68;3.42;;;16.30;72.80;;;;;;10422068;28;20110;-59
2023/03/21 16:58:28;;;;;;;27.13;20.63;;;16.50;71.90;;;;;;10420828;28;20111;-57
2023/03/21 17:03:28;;;;;;;20.38;13.10;;;16.80;71.70;;;;;;10402073;28;20368;-58
2023/03/21 17:08:30;;;;;;;15.30;11.02;;;16.90;72.80;;;;;;10434649;28;20180;-57
2023/03/21 17:13:31;;;;;;;14.38;10.27;;;17.10;74.70;;;;;;10440223;28;20028;-56
2023/03/21 17:18:32;;;;;;;14.75;9.70;;;17.10;73.40;;;;;;10443306;28;20032;-57
2023/03/21 17:23:32;;;;;;;15.98;9.07;;;17.10;73.30;;;;;;10410349;28;20130;-57
2023/03/21 17:28:33;;;;;;;23.05;10.70;;;17.00;73.00;;;;;;10408601;28;20624;-56
2023/03/21 17:33:34;;;;;;;16.67;9.18;;;16.90;73.00;;;;;;10369367;28;20120;-57
2023/03/21 17:38:36;;;;;;;17.02;8.27;;;16.80;73.20;;;;;;10421123;28;20056;-57
2023/03/21 17:43:37;;;;;;;11.77;7.50;;;16.60;74.10;;;;;;10432527;28;20510;-56
2023/03/21 17:48:38;;;;;;;14.35;8.20;;;16.50;74.80;;;;;;10436256;28;20481;-55
2023/03/21 17:53:39;;;;;;;13.15;8.38;;;16.40;75.10;;;;;;10434412;28;20632;-56
2023/03/21 17:58:39;;;;;;;15.63;7.93;;;16.40;75.30;;;;;;10442106;28;20130;-56
2023/03/21 18:03:40;;;;;;;12.52;7.60;;;16.40;75.50;;;;;;10445610;28;20085;-54
2023/03/21 18:08:41;;;;;;;11.60;6.68;;;16.40;75.60;;;;;;10431466;28;20120;-56
2023/03/21 18:13:43;;;;;;;13.73;7.05;;;16.40;75.40;;;;;;10439049;28;20100;-56
2023/03/21 18:18:45;;;;;;;10.93;7.65;;;16.30;75.40;;;;;;10436078;28;20036;-56
2023/03/21 18:23:46;;;;;;;11.10;6.18;;;16.30;75.40;;;;;;10446189;28;20052;-56
2023/03/21 18:28:49;;;;;;;14.65;7.82;;;16.30;75.50;;;;;;10436537;28;20075;-57
2023/03/21 18:33:51;;;;;;;13.85;6.38;;;16.20;75.30;;;;;;10446195;28;20655;-57
2023/03/21 18:38:53;;;;;;;11.85;6.40;;;16.20;75.50;;;;;;10446326;28;20017;-56
2023/03/21 18:43:54;;;;;;;21.88;6.05;;;16.20;75.70;;;;;;10444767;28;20108;-57
2023/03/21 18:48:55;;;;;;;15.23;5.05;;;16.20;75.70;;;;;;10446681;28;20064;-56
2023/03/21 18:53:57;;;;;;;12.10;6.13;;;16.20;75.30;;;;;;10444735;28;20246;-56
2023/03/21 18:58:58;;;;;;;10.88;5.78;;;16.10;75.30;;;;;;10445006;28;20508;-57
2023/03/21 19:03:59;;;;;;;11.60;5.65;;;16.10;75.40;;;;;;10445436;28;20031;-56
2023/03/21 19:08:59;;;;;;;8.63;5.47;;;16.10;75.40;;;;;;10443352;28;20514;-55
2023/03/21 19:14:00;;;;;;;12.52;4.68;;;16.10;75.50;;;;;;10445041;28;20070;-57
2023/03/21 19:19:01;;;;;;;8.73;5.47;;;16.10;75.40;;;;;;10443486;28;20349;-57
2023/03/21 19:24:02;;;;;;;11.25;4.57;;;16.10;75.20;;;;;;10444417;28;20029;-56
2023/03/21 19:29:03;;;;;;;11.18;4.43;;;16.10;75.30;;;;;;10444497;28;20033;-57
2023/03/21 19:34:04;;;;;;;5.88;4.38;;;16.10;75.30;;;;;;10447576;28;20159;-56
2023/03/21 19:39:05;;;;;;;11.30;5.60;;;16.10;75.40;;;;;;10436146;28;20017;-56
2023/03/21 19:44:06;;;;;;;6.82;3.35;;;16.10;75.20;;;;;;10432726;28;20018;-57
2023/03/21 19:49:08;;;;;;;5.70;3.33;;;16.20;74.10;;;;;;10432942;28;20025;-58
2023/03/21 19:54:08;;;;;;;8.13;3.90;;;16.30;73.60;;;;;;10445960;28;20013;-56
2023/03/21 19:59:09;;;;;;;6.25;3.25;;;16.30;73.40;;;;;;10444873;28;20108;-57
2023/03/21 20:04:11;;;;;;;4.72;3.20;;;16.40;73.20;;;;;;10445298;28;20024;-56
2023/03/21 20:09:11;;;;;;;6.85;3.95;;;16.40;72.90;;;;;;10445403;28;20036;-57
2023/03/21 20:14:12;;;;;;;5.70;3.90;;;16.50;72.80;;;;;;10443989;28;20556;-57
2023/03/21 20:19:14;;;;;;;7.18;3.83;;;16.60;72.20;;;;;;10443228;28;20499;-57
2023/03/21 20:24:16;;;;;;;5.00;3.40;;;16.60;71.80;;;;;;10446320;28;20021;-56
2023/03/21 20:29:17;;;;;;;5.78;3.05;;;16.70;71.90;;;;;;10445411;28;20025;-56
2023/03/21 20:34:17;;;;;;;5.03;3.17;;;16.60;71.90;;;;;;10445481;28;20088;-57
2023/03/21 20:39:18;;;;;;;5.63;3.60;;;16.50;72.00;;;;;;10446399;28;20120;-55
2023/03/21 20:44:19;;;;;;;8.43;3.70;;;16.50;72.10;;;;;;10446515;28;20021;-56
2023/03/21 20:49:21;;;;;;;8.00;3.58;;;16.50;72.30;;;;;;10444843;28;20447;-57
2023/03/21 20:54:22;;;;;;;4.57;3.13;;;16.40;72.40;;;;;;10445935;28;20017;-56
2023/03/21 20:59:23;;;;;;;5.90;3.35;;;16.40;72.50;;;;;;10444597;28;20021;-57
2023/03/21 21:04:31;;;;;;;4.93;3.20;;;16.30;72.60;;;;;;10446016;28;20032;-56
2023/03/21 21:09:32;;;;;;;5.13;3.25;;;16.30;72.70;;;;;;10444437;28;20051;-57
2023/03/21 21:14:34;;;;;;;4.28;2.80;;;16.20;72.80;;;;;;10444552;28;20504;-57
2023/03/21 21:19:35;;;;;;;5.65;3.38;;;16.20;72.90;;;;;;10449046;28;20090;-57
2023/03/21 21:24:36;;;;;;;7.97;4.05;;;16.20;72.90;;;;;;10454230;28;20132;-56
2023/03/21 21:29:36;;;;;;;5.05;2.88;;;16.10;72.90;;;;;;10453620;28;20048;-56
2023/03/21 21:34:37;;;;;;;4.88;2.95;;;16.10;72.90;;;;;;10453541;28;20021;-57
2023/03/21 21:39:38;;;;;;;4.90;3.20;;;16.10;73.00;;;;;;10453380;28;20017;-58
2023/03/21 21:44:43;;;;;;;5.03;3.08;;;16.10;73.00;;;;;;10453155;28;20020;-57
2023/03/21 21:49:43;;;;;;;3.83;3.03;;;16.00;73.00;;;;;;10451688;28;20032;-56
2023/03/21 21:54:44;;;;;;;4.88;3.00;;;16.00;73.00;;;;;;10451390;28;20638;-57
2023/03/21 21:59:45;;;;;;;4.50;2.78;;;16.00;73.00;;;;;;10452477;28;20100;-57
2023/03/21 22:04:46;;;;;;;5.30;2.90;;;16.00;73.70;;;;;;10451621;28;20484;-57
2023/03/21 22:09:47;;;;;;;3.13;2.25;;;15.90;73.00;;;;;;10451909;28;20135;-57
2023/03/21 22:14:47;;;;;;;3.70;2.47;;;15.90;73.10;;;;;;10451763;28;20687;-56
2023/03/21 22:19:48;;;;;;;5.00;2.95;;;15.90;73.10;;;;;;10467412;28;20426;-56
2023/03/21 22:24:49;;;;;;;5.47;2.80;;;15.90;73.20;;;;;;10466660;28;20112;-56
2023/03/21 22:29:49;;;;;;;4.65;2.50;;;15.90;73.30;;;;;;10433353;28;20040;-58
2023/03/21 22:34:50;;;;;;;5.68;3.40;;;15.90;73.30;;;;;;10451728;28;20025;-56
2023/03/21 22:39:51;;;;;;;4.55;2.67;;;15.80;73.30;;;;;;10450922;28;20100;-56
2023/03/21 22:44:51;;;;;;;3.80;2.40;;;15.80;73.30;;;;;;10432828;28;20108;-57
2023/03/21 22:49:52;;;;;;;5.03;2.92;;;15.80;73.30;;;;;;10449458;28;20127;-55
2023/03/21 22:54:53;;;;;;;3.47;2.63;;;15.80;73.30;;;;;;10448911;28;20420;-57
2023/03/21 22:59:54;;;;;;;3.15;2.10;;;15.70;73.30;;;;;;10448855;28;20043;-57
2023/03/21 23:04:55;;;;;;;3.25;2.10;;;15.80;73.20;;;;;;10450443;28;20433;-58
2023/03/21 23:09:55;;;;;;;4.82;2.85;;;15.70;73.20;;;;;;10449522;28;20132;-56
2023/03/21 23:14:56;;;;;;;3.42;2.25;;;15.70;73.10;;;;;;10449841;28;20013;-57
2023/03/21 23:19:57;;;;;;;3.78;2.00;;;15.70;73.20;;;;;;10448352;28;20369;-57
2023/03/21 23:24:58;;;;;;;3.90;2.38;;;15.70;73.10;;;;;;10449563;28;20502;-57
2023/03/21 23:29:58;;;;;;;6.55;2.55;;;15.70;73.10;;;;;;10464437;28;20024;-57
2023/03/21 23:34:59;;;;;;;3.47;2.30;;;15.70;73.10;;;;;;10417883;28;20056;-56
2023/03/21 23:40:00;;;;;;;3.30;2.30;;;15.70;73.10;;;;;;10448546;28;20406;-56
2023/03/21 23:45:00;;;;;;;2.75;1.80;;;15.70;73.00;;;;;;10448181;28;20020;-56
2023/03/21 23:50:01;;;;;;;4.25;2.60;;;15.60;72.90;;;;;;10447875;28;20017;-57
2023/03/21 23:55:04;;;;;;;3.10;1.95;;;15.60;72.90;;;;;;10430120;28;20028;-57
